Lulu Pass Weather Station

This weather station provides temperature, relative humidity (RH), wind speed, gust or max wind speed, and wind direction at 10014ft near Lulu Pass at the head of Fisher Creek. This data can be used with temperature and precipitation data from the Fisher Creek SNOTEL site.

This weather station was purchased by the Friends of the Avalanche Center.

If the data has not been updated recently you can view it directly on datagarrison.com

Elevation
10014ft
Jump to table bottom
Date Time Temperature
deg F
RH, % Wind Speed Wind Gust Wind Direction
01/28/22 04:00 3.6 76 16 21 NW - 330
01/28/22 03:00 3.7 79 17 21 NW - 326
01/28/22 02:00 4.2 85 18 22 NW - 321
01/28/22 01:00 2.2 86 18 24 NW - 320
01/28/22 00:00 3.7 88 18 23 NW - 323
01/27/22 23:00 3.2 89 17 21 NW - 333
01/27/22 22:00 3.4 89 16 23 NW - 331
01/27/22 21:00 5.4 90 17 23 NW - 326
01/27/22 20:00 5.5 90 15 21 NW - 323
01/27/22 19:00 5.9 90 17 22 NW - 303
01/27/22 18:00 5.5 90 14 21 NW - 309
01/27/22 17:00 7.4 91 15 26 NW - 298
01/27/22 16:00 8.4 92 13 21 W - 292
01/27/22 15:00 9.0 92 13 20 NW - 293
01/27/22 14:00 8.0 92 13 20 NW - 295
01/27/22 13:00 6.1 91 11 16 NW - 298
01/27/22 12:00 6.1 91 11 14 NW - 300
01/27/22 11:00 3.8 90 11 14 NW - 309
01/27/22 10:00 3.3 90 12 17 NW - 310
01/27/22 09:00 1.9 89 14 19 NW - 307
01/27/22 08:00 0.6 89 17 21 NW - 314
01/27/22 07:00 2.0 89 17 23 NW - 316
01/27/22 06:00 2.3 89 15 20 NW - 314
01/27/22 05:00 3.0 90 21 27 NW - 323
01/27/22 04:00 4.1 90 17 24 NW - 317
01/27/22 03:00 4.3 90 24 33 NW - 327
01/27/22 02:00 4.1 90 20 33 NW - 324
01/27/22 01:00 3.1 89 14 17 NW - 319
01/27/22 00:00 2.8 90 8 15 NW - 309
01/26/22 23:00 3.8 90 5 7 NW - 300
01/26/22 22:00 4.2 90 4 6 W - 288
01/26/22 21:00 4.2 90 5 13 W - 275
01/26/22 20:00 5.2 90 8 14 W - 272
01/26/22 19:00 6.6 90 7 13 SW - 218
01/26/22 18:00 8.0 90 5 13 SW - 246
01/26/22 17:00 11.5 91 6 18 SW - 234
01/26/22 16:00 12.6 93 8 17 W - 277
01/26/22 15:00 12.2 94 9 18 NW - 316
01/26/22 14:00 10.3 93 10 18 NW - 309
01/26/22 13:00 10.2 92 7 14 W - 288
01/26/22 12:00 9.5 92 10 18 NW - 307
01/26/22 11:00 6.0 91 8 16 NW - 295
01/26/22 10:00 4.7 91 6 13 NW - 310
01/26/22 09:00 4.5 90 5 9 NW - 323
01/26/22 08:00 1.3 89 11 16 NW - 313
01/26/22 07:00 2.6 89 11 15 NW - 307
01/26/22 06:00 2.1 89 13 18 NW - 314
01/26/22 05:00 1.5 89 12 18 NW - 306
01/26/22 04:00 1.6 89 17 24 NW - 317
01/26/22 03:00 2.5 89 12 20 NW - 295